Time;durP1;ratioP1;P1;durP2;ratioP2;P2;SDS_P1;SDS_P2;PMS_P1;PMS_P2;Temp;Humidity;BMP_temperature;BMP_pressure;BME280_temperature;BME280_humidity;BME280_pressure;Samples;Min_cycle;Max_cycle;Signal;HPM_P1;HPM_P2
2022/11/04 00:01:15;;;;;;;8.18;3.33;;;13.60;81.90;;;;;;5021503;28;20029;-62
2022/11/04 00:03:40;;;;;;;6.78;3.28;;;13.60;81.90;;;;;;5026302;28;20029;-63
2022/11/04 00:06:07;;;;;;;8.55;3.58;;;13.70;81.90;;;;;;5026588;28;20076;-62
2022/11/04 00:08:33;;;;;;;7.15;3.80;;;13.70;82.00;;;;;;5020392;28;20477;-63
2022/11/04 00:13:44;;;;;;;6.82;3.70;;;13.70;82.00;;;;;;5025387;28;20033;-63
2022/11/04 00:18:54;;;;;;;8.00;4.40;;;13.60;82.10;;;;;;5035415;28;20029;-63
2022/11/04 00:29:34;;;;;;;10.05;5.20;;;13.60;82.00;;;;;;5005413;28;20104;-62
2022/11/04 00:34:44;;;;;;;10.27;6.43;;;13.60;82.10;;;;;;5019498;28;20057;-62
2022/11/04 00:37:09;;;;;;;13.13;7.70;;;13.60;82.10;;;;;;5022235;28;20065;-62
2022/11/04 00:39:35;;;;;;;12.13;7.55;;;13.60;82.10;;;;;;5034081;28;20100;-63
2022/11/04 00:42:01;;;;;;;11.02;8.20;;;13.60;82.10;;;;;;5021558;28;20398;-63
2022/11/04 00:44:26;;;;;;;12.30;9.20;;;13.60;82.10;;;;;;5025181;28;20091;-62
2022/11/04 00:46:52;;;;;;;12.45;8.73;;;13.60;82.10;;;;;;5024204;28;20171;-62
2022/11/04 00:49:18;;;;;;;12.35;8.63;;;13.50;82.00;;;;;;5016418;28;20049;-63
2022/11/04 00:51:43;;;;;;;11.18;8.40;;;13.50;82.10;;;;;;5023814;28;20025;-62
2022/11/04 00:54:09;;;;;;;10.30;7.35;;;13.50;82.20;;;;;;5035141;28;20028;-62
2022/11/04 00:56:38;;;;;;;11.18;7.35;;;13.50;82.20;;;;;;5022693;28;20446;-63
2022/11/04 00:59:04;;;;;;;10.00;6.32;;;13.50;82.20;;;;;;5029207;28;20401;-62
2022/11/04 01:01:30;;;;;;;8.63;5.32;;;13.50;82.10;;;;;;5015984;28;20030;-62
2022/11/04 01:03:56;;;;;;;8.07;4.13;;;13.40;82.00;;;;;;5017822;28;20095;-62
2022/11/04 01:06:23;;;;;;;6.88;4.07;;;13.40;82.60;;;;;;5024632;28;20483;-62
2022/11/04 01:09:01;;;;;;;7.80;3.70;;;13.40;81.80;;;;;;5025549;28;20091;-62
2022/11/04 01:11:28;;;;;;;7.28;3.10;;;13.40;81.60;;;;;;5020851;28;20037;-62
2022/11/04 01:13:54;;;;;;;5.57;2.88;;;13.40;81.50;;;;;;5032532;28;20029;-63
2022/11/04 01:16:20;;;;;;;6.22;2.60;;;13.30;81.40;;;;;;5028416;28;20107;-62
2022/11/04 01:18:46;;;;;;;6.05;2.67;;;13.30;81.30;;;;;;5034630;28;20096;-62
2022/11/04 01:21:13;;;;;;;5.40;2.25;;;13.30;81.20;;;;;;5024356;28;20060;-63
2022/11/04 01:23:40;;;;;;;5.95;2.40;;;13.30;81.20;;;;;;5030967;28;20033;-62
2022/11/04 01:26:08;;;;;;;4.35;2.10;;;13.20;81.00;;;;;;5023714;28;20037;-62
2022/11/04 01:28:34;;;;;;;3.70;1.80;;;13.20;80.80;;;;;;5035408;28;20044;-63
2022/11/04 01:31:05;;;;;;;4.20;1.90;;;13.20;80.70;;;;;;5026461;28;20090;-62
2022/11/04 01:33:31;;;;;;;4.53;1.63;;;13.20;80.60;;;;;;5035651;28;20029;-63
2022/11/04 01:35:59;;;;;;;3.75;1.70;;;13.10;81.10;;;;;;5018567;28;20533;-63
2022/11/04 01:38:25;;;;;;;3.70;1.33;;;13.10;80.40;;;;;;5028102;28;20022;-63
2022/11/04 01:40:50;;;;;;;4.55;1.80;;;13.10;80.30;;;;;;5026698;28;20032;-62
2022/11/04 01:43:19;;;;;;;3.13;1.42;;;13.10;80.20;;;;;;5029110;28;20343;-62
2022/11/04 01:45:52;;;;;;;3.55;1.50;;;13.10;80.30;;;;;;5025995;28;20034;-63
2022/11/04 01:48:28;;;;;;;4.13;1.90;;;13.00;80.20;;;;;;5026949;28;20028;-63
2022/11/04 01:50:54;;;;;;;5.28;2.17;;;13.00;80.10;;;;;;5029062;28;20029;-63
2022/11/04 01:53:35;;;;;;;4.72;2.00;;;13.00;80.20;;;;;;5035412;28;20033;-62
2022/11/04 01:56:10;;;;;;;4.25;1.88;;;12.90;80.10;;;;;;5025004;28;20104;-63
2022/11/04 01:58:42;;;;;;;5.68;2.42;;;12.90;80.20;;;;;;5034285;28;20030;-62
2022/11/04 02:01:10;;;;;;;4.95;2.38;;;12.90;80.10;;;;;;5024765;28;20033;-62
2022/11/04 02:03:42;;;;;;;6.75;3.17;;;12.90;80.10;;;;;;5035261;28;20037;-62
2022/11/04 02:06:08;;;;;;;8.07;4.25;;;12.90;80.10;;;;;;5024707;28;20378;-62
2022/11/04 02:08:34;;;;;;;9.73;5.60;;;12.90;80.20;;;;;;5032874;28;20446;-62
2022/11/04 02:11:02;;;;;;;10.15;6.53;;;12.90;80.20;;;;;;5022329;28;20034;-63
2022/11/04 02:13:30;;;;;;;13.20;7.55;;;12.90;80.20;;;;;;5021640;28;20034;-63
2022/11/04 02:16:05;;;;;;;11.77;7.72;;;12.90;80.30;;;;;;5020106;28;20032;-63
2022/11/04 02:18:46;;;;;;;12.88;9.02;;;12.90;80.30;;;;;;5035012;28;20029;-63
2022/11/04 02:21:41;;;;;;;11.23;8.23;;;12.90;80.40;;;;;;5026580;28;20128;-63
2022/11/04 02:24:44;;;;;;;13.70;9.95;;;12.90;80.50;;;;;;5015319;28;20447;-63
2022/11/04 02:27:20;;;;;;;13.55;9.05;;;12.90;80.50;;;;;;5031648;28;20037;-63
2022/11/04 02:29:49;;;;;;;14.98;9.82;;;12.90;80.60;;;;;;5027064;28;20037;-62
2022/11/04 02:32:41;;;;;;;15.13;9.93;;;12.90;80.60;;;;;;5021548;28;20343;-63
2022/11/04 02:35:09;;;;;;;;;;;12.90;80.60;;;;;;5020862;28;20397;-63
2022/11/04 02:37:55;;;;;;;14.88;9.60;;;12.80;80.60;;;;;;5022905;28;19995;-62
2022/11/04 02:40:40;;;;;;;14.75;10.27;;;12.80;80.60;;;;;;5024504;28;20046;-62
2022/11/04 02:43:08;;;;;;;15.70;10.70;;;12.80;80.70;;;;;;5015508;28;20030;-62
2022/11/04 02:45:39;;;;;;;17.75;12.32;;;12.90;80.80;;;;;;5015474;28;20022;-62
2022/11/04 02:48:35;;;;;;;16.20;11.85;;;12.90;80.80;;;;;;5030487;28;20095;-63
2022/11/04 02:51:22;;;;;;;16.08;12.52;;;12.90;80.80;;;;;;5025363;28;20286;-63
2022/11/04 02:54:21;;;;;;;18.48;13.00;;;12.90;80.80;;;;;;5016950;28;20029;-62
2022/11/04 02:56:50;;;;;;;17.13;13.55;;;12.90;80.70;;;;;;5016720;28;20500;-62
2022/11/04 02:59:37;;;;;;;18.40;13.48;;;12.90;80.70;;;;;;5008139;28;20486;-62
2022/11/04 03:02:09;;;;;;;17.13;13.15;;;12.90;81.40;;;;;;5014299;28;20490;-63
2022/11/04 03:04:42;;;;;;;20.60;14.00;;;12.90;80.80;;;;;;5018343;28;20036;-62
2022/11/04 03:07:13;;;;;;;19.55;14.00;;;12.80;80.80;;;;;;5020470;28;20037;-63
2022/11/04 03:09:41;;;;;;;18.10;13.98;;;12.80;80.80;;;;;;5030841;28;20351;-63
2022/11/04 03:12:14;;;;;;;17.90;13.68;;;12.90;80.90;;;;;;5022130;28;20045;-63
2022/11/04 03:14:51;;;;;;;18.95;14.48;;;12.80;80.90;;;;;;5024508;28;20439;-62
2022/11/04 03:17:29;;;;;;;18.80;14.00;;;12.80;81.00;;;;;;5020463;28;20025;-63
2022/11/04 03:19:59;;;;;;;17.63;13.63;;;12.80;80.90;;;;;;5028043;28;20042;-63
2022/11/04 03:22:28;;;;;;;19.50;14.25;;;12.80;80.90;;;;;;5016319;28;20029;-63
2022/11/04 03:24:54;;;;;;;19.10;14.18;;;12.90;81.00;;;;;;5024287;28;20442;-62
2022/11/04 03:27:20;;;;;;;17.33;14.05;;;12.90;81.00;;;;;;5023272;28;20155;-63
2022/11/04 03:29:57;;;;;;;21.50;14.35;;;12.90;81.00;;;;;;5024220;28;20041;-63
2022/11/04 03:32:39;;;;;;;19.23;13.73;;;12.90;81.10;;;;;;5026500;28;20163;-63
2022/11/04 03:35:06;;;;;;;17.83;13.02;;;12.90;81.00;;;;;;5024975;28;20034;-63
2022/11/04 03:37:32;;;;;;;18.15;13.23;;;12.90;81.00;;;;;;5026039;28;20037;-62
2022/11/04 03:39:58;;;;;;;19.10;14.02;;;12.90;81.10;;;;;;5032668;28;20526;-63
2022/11/04 03:42:25;;;;;;;19.92;13.45;;;12.90;81.00;;;;;;5017447;28;20034;-63
2022/11/04 03:44:53;;;;;;;17.52;11.75;;;12.90;80.90;;;;;;5028174;28;20483;-63
2022/11/04 03:47:23;;;;;;;19.63;12.88;;;12.90;81.00;;;;;;5024268;28;20026;-62
2022/11/04 03:49:56;;;;;;;17.70;13.23;;;12.90;80.90;;;;;;5020267;28;20084;-63
2022/11/04 03:52:22;;;;;;;17.60;12.77;;;12.90;80.90;;;;;;5016651;28;20034;-65
2022/11/04 03:54:48;;;;;;;17.10;11.73;;;12.90;81.00;;;;;;5027337;28;20122;-63
2022/11/04 03:57:52;;;;;;;16.50;11.75;;;12.90;81.00;;;;;;5022882;28;20034;-63
2022/11/04 04:00:20;;;;;;;15.65;11.43;;;12.90;80.90;;;;;;5024116;28;20037;-63
2022/11/04 04:03:19;;;;;;;16.75;12.38;;;12.80;80.90;;;;;;5023932;28;20044;-63
2022/11/04 04:06:11;;;;;;;16.08;11.68;;;12.90;80.90;;;;;;5026052;28;20032;-63
2022/11/04 04:08:42;;;;;;;17.05;11.45;;;12.90;80.90;;;;;;5024963;28;20369;-62
2022/11/04 04:11:13;;;;;;;15.30;11.23;;;12.80;80.70;;;;;;5022287;28;20042;-63
2022/11/04 04:13:55;;;;;;;16.63;11.15;;;12.80;80.70;;;;;;5019537;28;20331;-63
2022/11/04 04:16:28;;;;;;;12.95;8.80;;;12.80;80.70;;;;;;5030215;28;20064;-62
2022/11/04 04:19:01;;;;;;;15.57;10.07;;;12.70;80.60;;;;;;5036021;28;20040;-63
2022/11/04 04:21:46;;;;;;;13.27;8.52;;;12.70;80.60;;;;;;5033002;28;20045;-63
2022/11/04 04:29:47;;;;;;;15.65;8.60;;;12.70;80.60;;;;;;5023387;28;20033;-63
2022/11/04 04:32:14;;;;;;;13.98;8.60;;;12.60;80.50;;;;;;5031446;28;20025;-63
2022/11/04 04:34:40;;;;;;;15.15;8.25;;;12.70;80.50;;;;;;5027679;28;20453;-62
2022/11/04 04:37:19;;;;;;;13.18;7.20;;;12.60;81.10;;;;;;5026282;28;20105;-63
2022/11/04 04:45:35;;;;;;;12.85;7.55;;;12.60;80.70;;;;;;5016297;28;20046;-63
2022/11/04 04:48:00;;;;;;;;;;;12.60;80.60;;;;;;5029453;28;20181;-63
2022/11/04 04:50:44;;;;;;;10.43;6.80;;;12.50;80.50;;;;;;5029703;28;20000;-62
2022/11/04 04:53:11;;;;;;;11.68;6.85;;;12.50;80.50;;;;;;5023371;28;20034;-63
2022/11/04 04:55:36;;;;;;;12.68;6.78;;;12.50;80.60;;;;;;5029050;28;20430;-62
2022/11/04 04:58:02;;;;;;;12.90;7.13;;;12.50;80.50;;;;;;5018089;28;20026;-62
2022/11/04 05:00:28;;;;;;;11.85;7.38;;;12.50;80.60;;;;;;5036355;28;20021;-63
2022/11/04 05:02:54;;;;;;;11.80;7.70;;;12.50;80.50;;;;;;5013488;28;20034;-62
2022/11/04 05:05:20;;;;;;;13.13;7.63;;;12.50;80.50;;;;;;5015073;28;20092;-63
2022/11/04 05:07:46;;;;;;;14.27;7.50;;;12.50;80.40;;;;;;5022939;28;20034;-62
2022/11/04 05:10:13;;;;;;;12.73;7.57;;;12.50;80.40;;;;;;5034375;28;20040;-62
2022/11/04 05:15:26;;;;;;;12.10;6.80;;;12.50;80.50;;;;;;5020519;28;20032;-63
2022/11/04 05:17:57;;;;;;;11.30;7.43;;;12.40;80.40;;;;;;5018658;28;20026;-63
2022/11/04 05:20:23;;;;;;;11.73;6.63;;;12.40;80.50;;;;;;5019963;28;20033;-63
2022/11/04 05:22:49;;;;;;;10.93;7.25;;;12.40;80.40;;;;;;5022959;28;20033;-63
2022/11/04 05:25:14;;;;;;;11.90;6.80;;;12.30;80.40;;;;;;5017237;28;20026;-63
2022/11/04 05:27:40;;;;;;;13.32;6.63;;;12.30;80.40;;;;;;5029366;28;20087;-63
2022/11/04 05:30:06;;;;;;;12.10;6.90;;;12.30;80.30;;;;;;5030309;28;20076;-62
2022/11/04 05:32:32;;;;;;;14.95;7.57;;;12.30;80.30;;;;;;5032402;28;20037;-63
2022/11/04 05:34:57;;;;;;;13.32;6.70;;;12.30;80.20;;;;;;5014251;28;20462;-62
2022/11/04 05:37:24;;;;;;;13.18;6.30;;;12.20;80.10;;;;;;5033341;28;20072;-63
2022/11/04 05:39:49;;;;;;;11.98;6.82;;;12.20;80.20;;;;;;5020762;28;20072;-62
2022/11/04 05:42:15;;;;;;;13.00;5.80;;;12.20;80.10;;;;;;5027968;28;20029;-63
2022/11/04 05:44:40;;;;;;;10.55;6.13;;;12.20;80.10;;;;;;5023488;28;20108;-62
2022/11/04 05:47:06;;;;;;;13.30;5.85;;;12.10;80.10;;;;;;5035065;28;20037;-63
2022/11/04 05:49:32;;;;;;;11.40;5.72;;;12.10;80.10;;;;;;5020830;28;20029;-62
2022/11/04 05:51:58;;;;;;;14.45;5.88;;;12.10;80.00;;;;;;5023995;28;20175;-62
2022/11/04 05:54:23;;;;;;;12.55;5.68;;;12.10;80.10;;;;;;5020861;28;20062;-62
2022/11/04 05:56:49;;;;;;;9.57;4.80;;;12.10;80.10;;;;;;5016644;28;20034;-62
2022/11/04 05:59:15;;;;;;;10.10;5.43;;;12.10;80.10;;;;;;5013987;28;20067;-62
2022/11/04 06:01:42;;;;;;;9.90;5.60;;;12.10;80.10;;;;;;5023694;28;20048;-63
2022/11/04 06:04:13;;;;;;;10.20;4.82;;;12.10;80.10;;;;;;5016236;28;20034;-63
2022/11/04 06:06:39;;;;;;;10.75;4.50;;;12.00;80.00;;;;;;5027288;28;20053;-63
2022/11/04 06:09:04;;;;;;;8.27;4.00;;;12.00;80.00;;;;;;5024189;28;20103;-63
2022/11/04 06:11:31;;;;;;;9.55;4.40;;;12.00;80.00;;;;;;5016557;28;20473;-63
2022/11/04 06:13:57;;;;;;;8.98;4.40;;;12.00;80.10;;;;;;5018923;28;20413;-62
2022/11/04 06:16:24;;;;;;;8.57;4.10;;;12.00;80.10;;;;;;5020459;28;20473;-63
2022/11/04 06:18:50;;;;;;;10.43;4.47;;;12.00;80.20;;;;;;5021750;28;20060;-63
2022/11/04 06:21:17;;;;;;;10.93;4.72;;;12.00;80.20;;;;;;5019428;28;20042;-63
2022/11/04 06:23:43;;;;;;;9.35;4.28;;;12.00;80.30;;;;;;5019583;28;20457;-63
2022/11/04 06:26:10;;;;;;;9.38;4.72;;;12.00;80.30;;;;;;5019108;28;20033;-63
2022/11/04 06:28:36;;;;;;;8.65;4.63;;;12.10;80.30;;;;;;5020920;28;20033;-63
2022/11/04 06:31:04;;;;;;;8.48;3.80;;;12.10;80.30;;;;;;5018961;28;20033;-63
2022/11/04 06:33:30;;;;;;;8.45;3.63;;;12.10;80.30;;;;;;5014718;28;20022;-63
2022/11/04 06:35:57;;;;;;;9.10;4.43;;;12.10;80.30;;;;;;5014450;28;20026;-63
2022/11/04 06:38:23;;;;;;;8.77;4.30;;;12.00;80.10;;;;;;5021572;28;20450;-63
2022/11/04 06:40:49;;;;;;;8.52;4.15;;;12.10;80.20;;;;;;5028442;28;20092;-63
2022/11/04 06:43:14;;;;;;;10.00;5.00;;;12.00;80.20;;;;;;5023691;28;20021;-63
2022/11/04 06:45:40;;;;;;;8.63;4.28;;;12.00;80.10;;;;;;5033918;28;20459;-63
2022/11/04 06:48:06;;;;;;;9.65;4.38;;;12.00;80.10;;;;;;5023850;28;20053;-63
2022/11/04 06:50:31;;;;;;;9.60;3.92;;;12.00;80.10;;;;;;5034905;28;20434;-63
2022/11/04 06:52:58;;;;;;;10.38;4.03;;;12.00;80.10;;;;;;5024132;28;20037;-63
2022/11/04 06:55:23;;;;;;;7.05;3.88;;;12.00;80.10;;;;;;5033216;28;20029;-63
2022/11/04 06:57:49;;;;;;;9.60;4.20;;;12.00;80.10;;;;;;5015224;28;20072;-66
2022/11/04 07:00:15;;;;;;;8.60;3.97;;;12.00;80.10;;;;;;5014050;28;20478;-63
2022/11/04 07:02:41;;;;;;;10.30;4.20;;;12.00;80.00;;;;;;5013723;28;20030;-63
2022/11/04 07:05:07;;;;;;;10.10;3.85;;;12.00;80.00;;;;;;5014938;28;20505;-62
2022/11/04 07:07:33;;;;;;;7.63;3.70;;;12.00;80.00;;;;;;5024093;28;20041;-63
2022/11/04 07:09:59;;;;;;;8.55;3.88;;;12.00;79.90;;;;;;5022031;28;20053;-63
2022/11/04 07:12:24;;;;;;;8.50;3.83;;;12.00;79.80;;;;;;5016588;28;20033;-63
2022/11/04 07:14:50;;;;;;;14.27;3.88;;;12.00;79.80;;;;;;5020270;28;20121;-63
2022/11/04 07:17:16;;;;;;;9.15;4.25;;;12.00;79.70;;;;;;5014239;28;20332;-63
2022/11/04 07:19:42;;;;;;;9.32;3.83;;;12.00;79.70;;;;;;5015175;28;20041;-63
2022/11/04 07:22:07;;;;;;;9.80;3.95;;;12.00;79.60;;;;;;5013152;28;20109;-63
2022/11/04 07:24:34;;;;;;;11.73;4.10;;;12.00;79.60;;;;;;5016561;28;20026;-63
2022/11/04 07:26:59;;;;;;;9.18;3.90;;;12.00;79.60;;;;;;5013268;28;20034;-63
2022/11/04 07:29:25;;;;;;;10.43;4.10;;;12.00;79.60;;;;;;5011241;28;20033;-63
2022/11/04 07:31:51;;;;;;;8.88;3.83;;;12.10;79.60;;;;;;5012787;28;20029;-63
2022/11/04 07:34:16;;;;;;;8.45;3.95;;;12.10;79.40;;;;;;5011160;28;20030;-63
2022/11/04 07:36:42;;;;;;;8.27;3.67;;;12.10;79.40;;;;;;5012891;28;20064;-63
2022/11/04 07:39:08;;;;;;;10.95;4.45;;;12.10;79.40;;;;;;5014009;28;20379;-63
2022/11/04 07:41:33;;;;;;;8.55;4.30;;;12.10;79.40;;;;;;5020299;28;20152;-62
2022/11/04 07:44:00;;;;;;;10.68;3.80;;;12.10;79.40;;;;;;5024065;28;20113;-63
2022/11/04 07:46:26;;;;;;;11.20;3.92;;;12.10;79.40;;;;;;5024764;28;20033;-62
2022/11/04 07:48:52;;;;;;;6.57;3.55;;;12.10;79.40;;;;;;5025108;28;20026;-62
2022/11/04 07:51:19;;;;;;;9.80;3.83;;;12.20;79.40;;;;;;5019667;28;20310;-63
2022/11/04 07:53:45;;;;;;;6.90;3.00;;;12.20;79.30;;;;;;5012573;28;20048;-63
2022/11/04 07:56:12;;;;;;;8.43;3.85;;;12.20;79.20;;;;;;5017802;28;20029;-62
2022/11/04 07:58:39;;;;;;;10.65;3.90;;;12.20;79.20;;;;;;5015003;28;20044;-62
2022/11/04 08:01:08;;;;;;;9.55;3.92;;;12.20;79.20;;;;;;5022784;28;20417;-62
2022/11/04 08:03:35;;;;;;;10.60;3.47;;;12.20;79.20;;;;;;5032893;28;20030;-62
2022/11/04 08:06:03;;;;;;;9.50;3.67;;;12.30;79.20;;;;;;5033878;28;20042;-62
2022/11/04 08:08:29;;;;;;;11.68;4.53;;;12.30;79.20;;;;;;5026977;28;20025;-62
2022/11/04 08:10:57;;;;;;;10.25;4.20;;;12.30;79.20;;;;;;5032429;28;20033;-62
2022/11/04 08:13:27;;;;;;;10.43;4.03;;;12.30;79.10;;;;;;5037706;28;20108;-62
2022/11/04 08:15:53;;;;;;;10.07;4.25;;;12.30;79.00;;;;;;5037461;28;20036;-62
2022/11/04 08:18:19;;;;;;;7.57;4.10;;;12.40;79.10;;;;;;5037938;28;20037;-62
2022/11/04 08:20:50;;;;;;;8.35;3.55;;;12.40;79.10;;;;;;5037296;28;20041;-62
2022/11/04 08:23:16;;;;;;;12.30;4.50;;;12.40;79.10;;;;;;5027824;28;20030;-62
2022/11/04 08:25:42;;;;;;;11.60;4.55;;;12.40;79.00;;;;;;5014150;28;20093;-62
2022/11/04 08:28:11;;;;;;;8.05;3.60;;;12.50;79.00;;;;;;5029158;28;20030;-62
2022/11/04 08:30:38;;;;;;;8.57;3.58;;;12.50;79.00;;;;;;5037445;28;20044;-63
2022/11/04 08:33:04;;;;;;;9.85;3.60;;;12.60;78.90;;;;;;5037468;28;20667;-63
2022/11/04 08:35:30;;;;;;;13.02;3.33;;;12.60;78.80;;;;;;5037200;28;20076;-63
2022/11/04 08:37:56;;;;;;;11.63;4.10;;;12.70;78.80;;;;;;5037266;28;20049;-63
2022/11/04 08:40:23;;;;;;;9.90;4.30;;;12.70;78.70;;;;;;5026038;28;20137;-63
2022/11/04 08:42:49;;;;;;;8.50;3.83;;;12.80;78.70;;;;;;5036137;28;20025;-63
2022/11/04 08:45:14;;;;;;;10.00;4.18;;;12.80;78.60;;;;;;5024490;28;20496;-63
2022/11/04 08:47:40;;;;;;;8.13;4.00;;;12.90;78.60;;;;;;5035863;28;20029;-63
2022/11/04 08:50:06;;;;;;;9.50;3.90;;;12.90;78.40;;;;;;5017637;28;20040;-63
2022/11/04 08:52:32;;;;;;;9.38;3.58;;;13.00;78.30;;;;;;5025137;28;20335;-63
2022/11/04 08:54:57;;;;;;;11.32;4.18;;;13.10;78.20;;;;;;5028628;28;20061;-63
2022/11/04 08:57:23;;;;;;;10.77;3.78;;;13.10;78.00;;;;;;5027025;28;20022;-63
2022/11/04 08:59:48;;;;;;;9.20;3.65;;;13.10;77.90;;;;;;5037167;28;20068;-63
2022/11/04 09:02:15;;;;;;;9.45;3.95;;;13.10;77.80;;;;;;5036916;28;20039;-63
2022/11/04 09:04:41;;;;;;;9.85;3.55;;;13.20;77.80;;;;;;5029346;28;20026;-63
2022/11/04 09:07:06;;;;;;;10.70;4.28;;;13.10;77.80;;;;;;5016170;28;20030;-63
2022/11/04 09:09:33;;;;;;;10.25;3.35;;;13.20;77.90;;;;;;5019327;28;20030;-64
2022/11/04 09:11:58;;;;;;;11.30;4.18;;;13.10;77.90;;;;;;5016465;28;20125;-63
2022/11/04 09:14:24;;;;;;;11.02;3.75;;;13.20;77.80;;;;;;5035189;28;20112;-64
2022/11/04 09:16:49;;;;;;;8.40;3.80;;;13.30;77.80;;;;;;5032427;28;20030;-63
2022/11/04 09:19:15;;;;;;;10.63;4.10;;;13.30;77.60;;;;;;5032852;28;20039;-64
2022/11/04 09:21:41;;;;;;;10.90;4.30;;;13.40;77.50;;;;;;5035130;28;20052;-63
2022/11/04 09:24:07;;;;;;;9.70;4.20;;;13.40;77.40;;;;;;5032668;28;20083;-63
2022/11/04 09:26:34;;;;;;;9.65;3.95;;;13.40;77.40;;;;;;5022878;28;20048;-63
2022/11/04 09:29:00;;;;;;;9.68;4.30;;;13.40;77.40;;;;;;5029160;28;20405;-63
2022/11/04 09:31:28;;;;;;;11.43;4.10;;;13.40;77.50;;;;;;5036072;28;20033;-63
2022/11/04 09:33:54;;;;;;;9.50;4.10;;;13.40;77.60;;;;;;5031997;28;20108;-64
2022/11/04 09:36:20;;;;;;;9.38;3.80;;;13.30;77.60;;;;;;5034665;28;20036;-64
2022/11/04 09:38:46;;;;;;;11.95;4.00;;;13.30;77.60;;;;;;5016862;28;20034;-63
2022/11/04 09:41:50;;;;;;;10.00;4.20;;;13.30;77.70;;;;;;5014266;28;20032;-63
2022/11/04 09:44:25;;;;;;;8.55;4.13;;;13.30;77.70;;;;;;5000587;28;20132;-63
2022/11/04 09:46:53;;;;;;;10.13;4.45;;;13.20;77.80;;;;;;5011723;28;20045;-63
2022/11/04 09:49:20;;;;;;;11.80;4.30;;;13.20;77.80;;;;;;5007569;28;20462;-63
2022/11/04 09:51:47;;;;;;;12.35;4.88;;;13.30;77.80;;;;;;5000417;28;20046;-62
2022/11/04 09:54:20;;;;;;;12.75;5.43;;;13.30;77.70;;;;;;5004758;28;20030;-63
2022/11/04 09:56:50;;;;;;;10.60;5.00;;;13.30;77.70;;;;;;5000932;28;20439;-63
2022/11/04 09:59:24;;;;;;;12.15;5.20;;;13.30;77.70;;;;;;4989419;28;20510;-62
2022/11/04 10:02:37;;;;;;;17.40;6.25;;;13.30;77.60;;;;;;4999764;28;20046;-62
2022/11/04 10:05:34;;;;;;;10.85;6.15;;;13.40;77.50;;;;;;4915178;29;20032;-62
2022/11/04 10:08:03;;;;;;;15.40;6.30;;;13.30;77.50;;;;;;4907275;29;20040;-63
2022/11/04 10:11:04;;;;;;;16.42;6.80;;;13.30;77.50;;;;;;4885083;29;20050;-63
2022/11/04 10:13:51;;;;;;;10.77;5.20;;;13.30;77.50;;;;;;4913081;29;20088;-63
2022/11/04 10:16:20;;;;;;;11.73;5.45;;;13.30;77.50;;;;;;4927725;29;20122;-63
2022/11/04 10:19:08;;;;;;;11.43;5.95;;;13.20;77.50;;;;;;4940422;29;20042;-63
2022/11/04 10:22:00;;;;;;;12.35;6.10;;;13.30;77.50;;;;;;4943949;29;20048;-63
2022/11/04 10:24:46;;;;;;;;;;;13.30;77.60;;;;;;4944434;29;20190;-63
2022/11/04 10:27:16;;;;;;;13.90;5.47;;;13.30;77.60;;;;;;4942269;29;20336;-63
2022/11/04 10:29:50;;;;;;;9.52;5.60;;;13.20;77.60;;;;;;4941719;29;20038;-62
2022/11/04 10:32:25;;;;;;;10.68;5.95;;;13.20;77.70;;;;;;4934412;29;20043;-62
2022/11/04 10:35:00;;;;;;;11.55;6.63;;;13.30;77.80;;;;;;4949154;28;20049;-62
2022/11/04 10:37:26;;;;;;;13.93;7.03;;;13.30;77.90;;;;;;5014395;28;20079;-63
2022/11/04 10:40:01;;;;;;;13.52;7.10;;;13.30;77.90;;;;;;5016011;28;20060;-63
2022/11/04 10:42:26;;;;;;;11.38;6.13;;;13.40;77.90;;;;;;5025919;28;20048;-62
2022/11/04 10:44:52;;;;;;;14.27;7.57;;;13.40;77.80;;;;;;5022652;28;20033;-62
2022/11/04 10:47:30;;;;;;;13.50;7.40;;;13.40;77.60;;;;;;5019308;28;20026;-63
2022/11/04 10:50:12;;;;;;;12.77;6.65;;;13.40;77.40;;;;;;5012177;28;20350;-62
2022/11/04 10:52:38;;;;;;;;;;;13.50;77.40;;;;;;5009439;28;20052;-63
2022/11/04 10:55:42;;;;;;;10.02;6.13;;;13.50;77.30;;;;;;5010920;28;20253;-63
2022/11/04 10:58:21;;;;;;;10.20;6.78;;;13.60;77.20;;;;;;5011757;28;20386;-63
2022/11/04 11:00:49;;;;;;;11.93;7.43;;;13.60;77.00;;;;;;5011246;28;20026;-63
2022/11/04 11:03:22;;;;;;;11.80;6.65;;;13.70;77.00;;;;;;5011638;28;20026;-63
2022/11/04 11:05:49;;;;;;;12.65;6.78;;;13.80;76.90;;;;;;5011069;28;20041;-63
2022/11/04 11:08:32;;;;;;;12.82;6.85;;;13.90;76.80;;;;;;5009468;28;20152;-63
2022/11/04 11:10:58;;;;;;;13.43;6.57;;;14.00;76.70;;;;;;5011063;28;20029;-63
2022/11/04 11:13:27;;;;;;;12.77;7.30;;;14.00;76.50;;;;;;5010485;28;20044;-63
2022/11/04 11:16:24;;;;;;;13.73;7.18;;;14.10;76.40;;;;;;5024479;28;20038;-66
2022/11/04 11:19:13;;;;;;;14.65;7.25;;;14.10;76.30;;;;;;5009255;28;20340;-63
2022/11/04 11:21:47;;;;;;;13.52;7.70;;;14.10;76.10;;;;;;5011461;28;20053;-62
2022/11/04 11:24:26;;;;;;;14.30;8.85;;;14.10;76.10;;;;;;5005010;28;20444;-63
2022/11/04 11:26:58;;;;;;;10.77;6.85;;;14.10;76.00;;;;;;5006697;28;20040;-63
2022/11/04 11:29:27;;;;;;;15.15;7.70;;;14.10;75.90;;;;;;5009578;28;20139;-63
2022/11/04 11:31:54;;;;;;;13.13;8.70;;;14.20;76.00;;;;;;5010155;28;20034;-62
2022/11/04 11:34:31;;;;;;;12.75;8.10;;;14.20;76.00;;;;;;5009741;28;20118;-63
2022/11/04 11:37:01;;;;;;;13.25;8.15;;;14.20;76.00;;;;;;5010458;28;20030;-62
2022/11/04 11:39:31;;;;;;;15.00;8.93;;;14.10;76.10;;;;;;5011788;28;20034;-62
2022/11/04 11:42:10;;;;;;;17.70;8.07;;;14.10;76.10;;;;;;5010925;28;20037;-62
2022/11/04 11:44:43;;;;;;;12.10;8.55;;;14.20;76.10;;;;;;5017740;28;20361;-62
2022/11/04 11:47:20;;;;;;;15.07;9.00;;;14.20;76.10;;;;;;5016212;28;20057;-62
2022/11/04 11:50:12;;;;;;;14.90;8.60;;;14.20;76.00;;;;;;5017692;28;20064;-62
2022/11/04 11:52:38;;;;;;;13.02;8.40;;;14.20;75.90;;;;;;5015108;28;20344;-62
2022/11/04 11:55:22;;;;;;;15.35;9.25;;;14.20;75.80;;;;;;5015842;28;20472;-62
2022/11/04 11:58:09;;;;;;;12.25;8.18;;;14.30;75.80;;;;;;5020281;28;20178;-63
2022/11/04 12:00:41;;;;;;;13.30;8.02;;;14.30;75.80;;;;;;5014156;28;20025;-62
2022/11/04 12:03:19;;;;;;;13.25;7.65;;;14.30;75.60;;;;;;5025641;28;20033;-63
2022/11/04 12:06:14;;;;;;;13.52;8.48;;;14.30;75.50;;;;;;5026024;28;20064;-63
2022/11/04 12:09:03;;;;;;;12.70;7.68;;;14.40;75.50;;;;;;5012804;28;20361;-63
2022/11/04 12:12:00;;;;;;;13.30;7.97;;;14.50;75.60;;;;;;5015941;28;20033;-62
2022/11/04 12:14:54;;;;;;;13.38;8.68;;;14.50;75.40;;;;;;5009504;28;20100;-63
2022/11/04 12:17:35;;;;;;;12.82;8.25;;;14.50;75.30;;;;;;5022616;28;20018;-63
2022/11/04 12:20:24;;;;;;;15.50;7.83;;;14.60;75.30;;;;;;5007132;28;20385;-63
2022/11/04 12:23:08;;;;;;;17.60;9.30;;;14.60;75.30;;;;;;5013092;28;20041;-63
2022/11/04 12:26:09;;;;;;;15.43;8.98;;;14.60;75.40;;;;;;5013701;28;20125;-63
2022/11/04 12:29:06;;;;;;;15.45;9.50;;;14.50;75.20;;;;;;5012502;28;20393;-63
2022/11/04 12:32:01;;;;;;;15.38;8.98;;;14.50;75.40;;;;;;5014931;28;20022;-63
2022/11/04 12:34:40;;;;;;;14.65;9.40;;;14.50;75.30;;;;;;5016570;28;20029;-63
2022/11/04 12:37:20;;;;;;;13.20;9.57;;;14.50;75.20;;;;;;5010257;28;20045;-63
2022/11/04 12:40:06;;;;;;;16.83;10.30;;;14.50;75.10;;;;;;5033689;28;20362;-63
2022/11/04 12:43:03;;;;;;;13.85;9.73;;;14.50;75.20;;;;;;5023160;28;20037;-63
2022/11/04 12:45:44;;;;;;;13.35;9.15;;;14.50;75.00;;;;;;5026109;28;20042;-63
2022/11/04 12:48:15;;;;;;;;;;;14.50;75.00;;;;;;5026915;28;20029;-63
2022/11/04 12:51:06;;;;;;;12.07;8.03;;;14.50;75.10;;;;;;5027578;28;19920;-64
2022/11/04 12:53:54;;;;;;;12.93;9.00;;;14.50;75.00;;;;;;5016118;28;20282;-63
2022/11/04 12:56:27;;;;;;;13.38;9.05;;;14.50;74.90;;;;;;5028430;28;20120;-63
2022/11/04 12:59:23;;;;;;;15.90;9.45;;;14.50;74.90;;;;;;5037014;28;20034;-63
2022/11/04 13:01:53;;;;;;;14.10;9.25;;;14.50;74.80;;;;;;5036011;28;20476;-64
2022/11/04 13:04:31;;;;;;;12.43;8.60;;;14.50;74.70;;;;;;5036838;28;20113;-64
2022/11/04 13:07:07;;;;;;;15.95;9.65;;;14.50;74.70;;;;;;5021375;28;20034;-63
2022/11/04 13:09:54;;;;;;;14.80;9.38;;;14.50;74.60;;;;;;5017908;28;20362;-64
2022/11/04 13:12:28;;;;;;;13.75;9.13;;;14.50;74.70;;;;;;5037034;28;20029;-63
2022/11/04 13:15:03;;;;;;;16.02;9.20;;;14.50;74.70;;;;;;5036992;28;20025;-64
2022/11/04 13:17:34;;;;;;;12.18;8.68;;;14.50;74.70;;;;;;5032758;28;20048;-64
2022/11/04 13:20:13;;;;;;;14.18;9.68;;;14.50;74.80;;;;;;5036322;28;20056;-64
2022/11/04 13:22:45;;;;;;;14.82;9.50;;;14.50;74.70;;;;;;5036921;28;20450;-63
2022/11/04 13:25:19;;;;;;;;;;;14.50;74.70;;;;;;5036793;28;20053;-64
2022/11/04 13:27:47;;;;;;;13.55;8.48;;;14.50;74.80;;;;;;5036798;28;19932;-65
2022/11/04 13:30:37;;;;;;;15.50;10.05;;;14.50;74.70;;;;;;5036340;28;20072;-65
2022/11/04 13:33:23;;;;;;;15.27;9.45;;;14.50;74.70;;;;;;5025065;28;20022;-64
2022/11/04 13:36:06;;;;;;;14.73;10.45;;;14.50;74.70;;;;;;5022516;28;20067;-64